createdAt,value
2023-01-07T00:02:53.983Z,9.15
2023-01-07T00:07:59.712Z,9.45
2023-01-07T00:13:04.058Z,8.68
2023-01-07T00:18:07.786Z,8.80
2023-01-07T00:23:12.876Z,8.15
2023-01-07T00:28:16.578Z,6.32
2023-01-07T00:33:22.455Z,7.72
2023-01-07T00:38:27.579Z,6.68
2023-01-07T00:43:31.581Z,7.47
2023-01-07T00:48:35.414Z,6.18
2023-01-07T00:53:40.921Z,6.63
2023-01-07T00:58:44.889Z,8.60
2023-01-07T01:03:48.809Z,6.97
2023-01-07T01:08:54.100Z,6.65
2023-01-07T01:13:57.825Z,8.60
2023-01-07T01:19:01.592Z,4.78
2023-01-07T01:24:07.319Z,4.90
2023-01-07T01:29:11.355Z,6.97
2023-01-07T01:34:15.762Z,4.93
2023-01-07T01:39:21.484Z,4.93
2023-01-07T01:44:48.248Z,7.78
2023-01-07T01:50:02.091Z,5.32
2023-01-07T01:55:14.757Z,7.82
2023-01-07T02:00:18.678Z,4.22
2023-01-07T02:05:30.102Z,7.30
2023-01-07T02:15:52.028Z,4.05
2023-01-07T02:21:04.482Z,5.38
2023-01-07T02:26:52.933Z,6.53
2023-01-07T02:32:26.450Z,5.82
2023-01-07T02:37:40.427Z,9.20
2023-01-07T02:42:55.158Z,5.97
2023-01-07T02:48:05.027Z,5.93
2023-01-07T02:53:10.737Z,4.07
2023-01-07T02:58:44.208Z,4.22
2023-01-07T03:04:05.467Z,4.53
2023-01-07T03:09:15.093Z,6.22
2023-01-07T03:14:21.444Z,4.53
2023-01-07T03:19:31.687Z,6.03
2023-01-07T03:24:35.528Z,5.30
2023-01-07T03:29:39.439Z,4.95
2023-01-07T03:34:46.156Z,4.32
2023-01-07T03:39:52.062Z,6.78
2023-01-07T03:44:56.330Z,2.90
2023-01-07T03:50:03.461Z,4.07
2023-01-07T03:55:08.099Z,7.25
2023-01-07T04:00:14.547Z,6.18
2023-01-07T04:05:19.986Z,5.30
2023-01-07T04:10:25.185Z,6.60
2023-01-07T04:15:29.836Z,5.38
2023-01-07T04:20:35.720Z,2.55
2023-01-07T04:25:40.575Z,4.13
2023-01-07T04:30:46.479Z,4.78
2023-01-07T04:35:51.654Z,2.90
2023-01-07T04:40:56.015Z,3.92
2023-01-07T04:46:00.440Z,4.05
2023-01-07T04:51:06.706Z,2.33
2023-01-07T04:56:10.566Z,2.47
2023-01-07T05:01:15.739Z,2.92
2023-01-07T05:06:21.532Z,4.03
2023-01-07T05:11:25.507Z,2.95
2023-01-07T05:16:32.668Z,2.72
2023-01-07T05:21:41.998Z,1.77
2023-01-07T05:26:45.987Z,3.58
2023-01-07T05:31:51.181Z,2.90
2023-01-07T05:36:56.457Z,2.97
2023-01-07T05:42:01.024Z,3.97
2023-01-07T05:47:05.872Z,2.70
2023-01-07T05:52:11.141Z,1.05
2023-01-07T05:57:14.906Z,2.55
2023-01-07T06:02:18.692Z,3.78
2023-01-07T06:07:23.988Z,2.78
2023-01-07T06:12:27.775Z,2.22
2023-01-07T06:17:31.507Z,1.58
2023-01-07T06:22:37.034Z,4.38
2023-01-07T06:27:41.819Z,1.75
2023-01-07T06:32:45.950Z,1.95
2023-01-07T06:37:51.306Z,1.67
2023-01-07T06:42:55.096Z,1.77
2023-01-07T06:47:58.883Z,1.45
2023-01-07T06:53:04.170Z,2.47
2023-01-07T06:58:07.966Z,3.20
2023-01-07T07:03:11.735Z,1.75
2023-01-07T07:08:17.901Z,3.95
2023-01-07T07:13:21.845Z,2.00
2023-01-07T07:18:26.964Z,1.55
2023-01-07T07:23:32.159Z,1.33
2023-01-07T07:28:35.865Z,1.52
2023-01-07T07:33:39.605Z,4.43
2023-01-07T07:38:44.675Z,2.55
2023-01-07T07:43:48.393Z,2.58
2023-01-07T07:48:52.406Z,2.95
2023-01-07T07:53:57.503Z,1.95
2023-01-07T07:59:01.217Z,0.82
2023-01-07T08:04:04.999Z,0.70
2023-01-07T08:09:10.176Z,0.98
2023-01-07T08:14:13.910Z,1.17
2023-01-07T08:19:18.008Z,2.00
2023-01-07T08:24:25.137Z,3.25
2023-01-07T08:29:28.814Z,0.55
2023-01-07T08:34:32.500Z,1.55
2023-01-07T08:39:37.559Z,0.88
2023-01-07T08:44:41.262Z,2.60
2023-01-07T08:49:44.891Z,2.92
2023-01-07T08:54:50.175Z,1.52
2023-01-07T08:59:54.171Z,1.55
2023-01-07T09:04:58.367Z,0.82
2023-01-07T09:10:03.661Z,0.98
2023-01-07T09:15:08.875Z,1.67
2023-01-07T09:20:12.837Z,1.73
2023-01-07T09:25:18.086Z,3.72
2023-01-07T09:30:21.826Z,1.02
2023-01-07T09:35:25.549Z,1.95
2023-01-07T09:40:33.995Z,0.60
2023-01-07T09:45:41.897Z,2.28
2023-01-07T09:50:51.836Z,0.60
2023-01-07T09:56:11.396Z,1.15
2023-01-07T10:01:27.828Z,0.68
2023-01-07T10:06:43.825Z,1.08
2023-01-07T10:12:00.437Z,0.70
2023-01-07T10:17:12.569Z,0.27
2023-01-07T10:22:21.072Z,1.05
2023-01-07T10:27:32.396Z,1.55
2023-01-07T10:32:38.009Z,0.20
2023-01-07T10:37:43.543Z,1.27
2023-01-07T10:42:55.639Z,0.63
2023-01-07T10:48:30.882Z,0.40
2023-01-07T10:53:46.056Z,0.88
2023-01-07T10:58:51.920Z,1.30
2023-01-07T11:03:58.546Z,0.40
2023-01-07T11:09:05.847Z,3.55
2023-01-07T11:14:16.876Z,1.55
2023-01-07T11:19:23.837Z,0.40
2023-01-07T11:24:33.371Z,0.75
2023-01-07T11:29:43.924Z,0.50
2023-01-07T11:34:56.395Z,4.03
2023-01-07T11:40:01.624Z,0.38
2023-01-07T11:45:17.583Z,0.77
2023-01-07T11:50:31.496Z,0.85
2023-01-07T11:55:35.219Z,0.73
2023-01-07T12:00:40.282Z,0.85
2023-01-07T12:05:45.907Z,1.13
2023-01-07T12:10:56.385Z,1.75
2023-01-07T12:16:03.929Z,0.63
2023-01-07T12:21:33.683Z,0.82
2023-01-07T12:26:44.007Z,0.68
2023-01-07T12:32:06.459Z,0.70
2023-01-07T12:37:20.351Z,0.73
2023-01-07T12:42:28.031Z,0.68
2023-01-07T12:47:37.529Z,1.00
2023-01-07T12:52:45.083Z,0.60
2023-01-07T12:58:00.265Z,0.85
2023-01-07T13:03:18.807Z,0.77
2023-01-07T13:08:30.649Z,0.93
2023-01-07T13:13:40.538Z,1.80
2023-01-07T13:18:45.708Z,1.42
2023-01-07T13:24:07.265Z,1.05
2023-01-07T13:29:29.671Z,0.95
2023-01-07T13:34:46.218Z,2.72
2023-01-07T13:40:16.874Z,3.17
2023-01-07T13:45:23.992Z,1.73
2023-01-07T13:55:39.537Z,0.80
2023-01-07T14:00:48.130Z,0.77
2023-01-07T14:06:38.733Z,1.58
2023-01-07T14:12:13.149Z,0.88
2023-01-07T14:17:27.079Z,1.02
2023-01-07T14:22:43.163Z,1.10
2023-01-07T14:27:57.787Z,2.37
2023-01-07T14:33:03.425Z,1.40
2023-01-07T14:38:42.095Z,1.17
2023-01-07T14:44:03.141Z,1.67
2023-01-07T14:49:46.923Z,1.33
2023-01-07T14:55:22.085Z,1.15
2023-01-07T15:00:55.546Z,4.00
2023-01-07T15:06:25.657Z,1.45
2023-01-07T15:11:48.056Z,1.08
2023-01-07T15:16:54.617Z,1.48
2023-01-07T15:22:08.186Z,0.57
2023-01-07T15:27:18.659Z,1.02
2023-01-07T15:32:34.236Z,1.25
2023-01-07T15:37:37.986Z,0.90
2023-01-07T15:42:44.118Z,1.20
2023-01-07T15:47:49.809Z,1.13
2023-01-07T15:52:55.439Z,2.05
2023-01-07T15:58:04.643Z,0.70
2023-01-07T16:03:15.668Z,1.33
2023-01-07T16:08:28.362Z,0.88
2023-01-07T16:13:32.861Z,1.05
2023-01-07T16:18:37.977Z,1.63
2023-01-07T16:23:42.263Z,2.08
2023-01-07T16:28:48.681Z,0.93
2023-01-07T16:33:57.880Z,1.80
2023-01-07T16:39:08.671Z,1.48
2023-01-07T16:44:57.536Z,1.05
2023-01-07T16:50:32.021Z,1.25
2023-01-07T16:55:50.038Z,2.58
2023-01-07T17:00:55.655Z,1.52
2023-01-07T17:06:08.527Z,2.35
2023-01-07T17:11:22.188Z,4.65
2023-01-07T17:16:32.336Z,3.13
2023-01-07T17:21:45.138Z,3.05
2023-01-07T17:26:49.722Z,1.40
2023-01-07T17:31:53.430Z,2.60
2023-01-07T17:36:58.610Z,2.13
2023-01-07T17:42:19.701Z,2.67
2023-01-07T17:47:23.336Z,2.13
2023-01-07T17:52:28.869Z,2.95
2023-01-07T17:57:32.643Z,3.60
2023-01-07T18:02:36.338Z,4.38
2023-01-07T18:07:41.925Z,2.25
2023-01-07T18:12:45.846Z,2.03
2023-01-07T18:17:49.508Z,1.58
2023-01-07T18:22:54.626Z,2.47
2023-01-07T18:27:58.324Z,1.75
2023-01-07T18:33:01.982Z,2.08
2023-01-07T18:38:07.096Z,2.08
2023-01-07T18:43:13.313Z,3.05
2023-01-07T18:48:18.724Z,2.42
2023-01-07T18:53:26.683Z,4.50
2023-01-07T18:58:30.516Z,4.45
2023-01-07T19:03:34.353Z,3.00
2023-01-07T19:08:39.809Z,1.77
2023-01-07T19:13:43.828Z,3.13
2023-01-07T19:18:47.545Z,2.38
2023-01-07T19:23:52.637Z,2.10
2023-01-07T19:28:56.559Z,2.60
2023-01-07T19:34:00.212Z,2.60
2023-01-07T19:39:05.401Z,2.45
2023-01-07T19:44:09.183Z,1.58
2023-01-07T19:49:14.086Z,1.63
2023-01-07T19:54:19.138Z,3.00
2023-01-07T19:59:23.569Z,1.42
2023-01-07T20:04:27.500Z,2.15
2023-01-07T20:09:32.935Z,1.58
2023-01-07T20:14:36.669Z,1.92
2023-01-07T20:19:40.385Z,2.30
2023-01-07T20:24:46.781Z,1.77
2023-01-07T20:29:50.547Z,1.53
2023-01-07T20:34:54.273Z,1.40
2023-01-07T20:39:59.466Z,4.05
2023-01-07T20:45:03.248Z,2.55
2023-01-07T20:50:08.360Z,2.92
2023-01-07T20:55:13.532Z,2.05
2023-01-07T21:00:17.623Z,3.50
2023-01-07T21:05:23.001Z,2.03
2023-01-07T21:10:28.220Z,4.63
2023-01-07T21:15:32.639Z,2.08
2023-01-07T21:20:36.429Z,2.03
2023-01-07T21:25:41.570Z,2.03
2023-01-07T21:30:45.311Z,1.95
2023-01-07T21:35:49.031Z,2.85
2023-01-07T21:40:54.103Z,1.52
2023-01-07T21:46:00.709Z,4.03
2023-01-07T21:51:05.827Z,4.20
2023-01-07T21:56:12.424Z,2.03
2023-01-07T22:01:17.289Z,2.42
2023-01-07T22:06:22.976Z,2.13
2023-01-07T22:11:28.316Z,2.75
2023-01-07T22:16:33.539Z,4.50
2023-01-07T22:21:37.282Z,3.03
2023-01-07T22:26:42.979Z,2.67
2023-01-07T22:31:49.031Z,4.47
2023-01-07T22:36:58.015Z,4.15
2023-01-07T22:42:08.408Z,3.30
2023-01-07T22:47:16.223Z,2.90
2023-01-07T22:52:19.975Z,2.50
2023-01-07T22:57:25.321Z,6.15
2023-01-07T23:02:29.514Z,3.15
2023-01-07T23:07:33.227Z,2.00
2023-01-07T23:12:38.364Z,2.13
2023-01-07T23:17:42.657Z,5.15
2023-01-07T23:22:46.393Z,3.63
2023-01-07T23:27:51.434Z,4.55
2023-01-07T23:32:55.123Z,5.95
2023-01-07T23:38:00.353Z,3.35
2023-01-07T23:43:05.651Z,6.70
2023-01-07T23:48:09.329Z,2.53
2023-01-07T23:53:13.107Z,4.32
2023-01-07T23:58:18.233Z,1.42
